sensor_id;sensor_type;location;lat;lon;timestamp;temperature;humidity
51739;DHT22;37815;52.692;6.226;2022-10-30T00:01:38;16.30;99.90
51739;DHT22;37815;52.692;6.226;2022-10-30T00:06:39;16.30;99.90
51739;DHT22;37815;52.692;6.226;2022-10-30T00:11:40;16.30;99.90
51739;DHT22;37815;52.692;6.226;2022-10-30T00:16:41;16.30;99.90
51739;DHT22;37815;52.692;6.226;2022-10-30T00:21:41;16.30;99.90
51739;DHT22;37815;52.692;6.226;2022-10-30T00:26:42;16.30;99.90
51739;DHT22;37815;52.692;6.226;2022-10-30T00:31:43;16.20;99.90
51739;DHT22;37815;52.692;6.226;2022-10-30T00:36:43;16.20;99.90
51739;DHT22;37815;52.692;6.226;2022-10-30T00:41:44;16.20;99.90
51739;DHT22;37815;52.692;6.226;2022-10-30T00:46:45;16.20;99.90
51739;DHT22;37815;52.692;6.226;2022-10-30T00:51:50;16.20;99.90
51739;DHT22;37815;52.692;6.226;2022-10-30T00:56:51;16.20;99.90
51739;DHT22;37815;52.692;6.226;2022-10-30T01:01:53;16.20;99.90
51739;DHT22;37815;52.692;6.226;2022-10-30T01:06:54;16.20;99.90
51739;DHT22;37815;52.692;6.226;2022-10-30T01:11:55;16.20;99.90
51739;DHT22;37815;52.692;6.226;2022-10-30T01:33:23;16.10;99.90
51739;DHT22;37815;52.692;6.226;2022-10-30T01:38:31;16.10;99.90
51739;DHT22;37815;52.692;6.226;2022-10-30T01:43:33;16.10;99.90
51739;DHT22;37815;52.692;6.226;2022-10-30T02:04:12;16.00;99.90
51739;DHT22;37815;52.692;6.226;2022-10-30T02:09:16;16.00;99.90
51739;DHT22;37815;52.692;6.226;2022-10-30T02:14:27;16.00;99.90
51739;DHT22;37815;52.692;6.226;2022-10-30T02:19:29;16.00;99.90
51739;DHT22;37815;52.692;6.226;2022-10-30T02:24:31;16.00;99.90
51739;DHT22;37815;52.692;6.226;2022-10-30T02:29:32;16.00;99.90
51739;DHT22;37815;52.692;6.226;2022-10-30T02:34:33;16.00;99.90
51739;DHT22;37815;52.692;6.226;2022-10-30T02:39:34;15.90;99.90
51739;DHT22;37815;52.692;6.226;2022-10-30T02:44:34;15.90;99.90
51739;DHT22;37815;52.692;6.226;2022-10-30T02:49:35;15.90;99.90
51739;DHT22;37815;52.692;6.226;2022-10-30T02:54:36;15.90;99.90
51739;DHT22;37815;52.692;6.226;2022-10-30T02:59:36;15.90;99.90
51739;DHT22;37815;52.692;6.226;2022-10-30T03:04:37;15.90;99.90
51739;DHT22;37815;52.692;6.226;2022-10-30T03:09:38;15.80;99.90
51739;DHT22;37815;52.692;6.226;2022-10-30T03:14:39;15.80;99.90
51739;DHT22;37815;52.692;6.226;2022-10-30T03:19:39;15.80;99.90
51739;DHT22;37815;52.692;6.226;2022-10-30T03:24:40;15.80;99.90
51739;DHT22;37815;52.692;6.226;2022-10-30T03:29:41;15.80;99.90
51739;DHT22;37815;52.692;6.226;2022-10-30T03:34:41;15.80;99.90
51739;DHT22;37815;52.692;6.226;2022-10-30T03:39:42;15.80;99.90
51739;DHT22;37815;52.692;6.226;2022-10-30T03:44:43;15.80;99.90
51739;DHT22;37815;52.692;6.226;2022-10-30T03:49:43;15.80;99.90
51739;DHT22;37815;52.692;6.226;2022-10-30T03:54:44;15.80;99.90
51739;DHT22;37815;52.692;6.226;2022-10-30T03:59:45;15.70;99.90
51739;DHT22;37815;52.692;6.226;2022-10-30T04:04:46;15.70;99.90
51739;DHT22;37815;52.692;6.226;2022-10-30T04:09:46;15.70;99.90
51739;DHT22;37815;52.692;6.226;2022-10-30T04:14:47;15.70;99.90
51739;DHT22;37815;52.692;6.226;2022-10-30T04:19:48;15.70;99.90
51739;DHT22;37815;52.692;6.226;2022-10-30T04:24:50;15.70;99.90
51739;DHT22;37815;52.692;6.226;2022-10-30T04:29:50;15.70;99.90
51739;DHT22;37815;52.692;6.226;2022-10-30T04:34:52;15.70;99.90
51739;DHT22;37815;52.692;6.226;2022-10-30T04:39:53;15.70;99.90
51739;DHT22;37815;52.692;6.226;2022-10-30T04:44:53;15.60;99.90
51739;DHT22;37815;52.692;6.226;2022-10-30T04:49:54;15.60;99.90
51739;DHT22;37815;52.692;6.226;2022-10-30T04:54:55;15.60;99.90
51739;DHT22;37815;52.692;6.226;2022-10-30T04:59:56;15.60;99.90
51739;DHT22;37815;52.692;6.226;2022-10-30T05:04:56;15.60;99.90
51739;DHT22;37815;52.692;6.226;2022-10-30T05:09:57;15.70;99.90
51739;DHT22;37815;52.692;6.226;2022-10-30T05:14:58;15.60;99.90
51739;DHT22;37815;52.692;6.226;2022-10-30T05:19:59;15.60;99.90
51739;DHT22;37815;52.692;6.226;2022-10-30T05:24:59;15.50;99.90
51739;DHT22;37815;52.692;6.226;2022-10-30T05:30:00;15.50;99.90
51739;DHT22;37815;52.692;6.226;2022-10-30T05:35:01;15.50;99.90
51739;DHT22;37815;52.692;6.226;2022-10-30T05:40:02;15.50;99.90
51739;DHT22;37815;52.692;6.226;2022-10-30T05:45:03;15.50;99.90
51739;DHT22;37815;52.692;6.226;2022-10-30T05:50:04;15.40;99.90
51739;DHT22;37815;52.692;6.226;2022-10-30T05:55:05;15.50;99.90
51739;DHT22;37815;52.692;6.226;2022-10-30T06:00:07;15.40;99.90
51739;DHT22;37815;52.692;6.226;2022-10-30T06:05:07;15.40;99.90
51739;DHT22;37815;52.692;6.226;2022-10-30T06:10:08;15.40;99.90
51739;DHT22;37815;52.692;6.226;2022-10-30T06:15:09;15.40;99.90
51739;DHT22;37815;52.692;6.226;2022-10-30T06:20:10;15.40;99.90
51739;DHT22;37815;52.692;6.226;2022-10-30T06:25:11;15.40;99.90
51739;DHT22;37815;52.692;6.226;2022-10-30T06:30:12;15.40;99.90
51739;DHT22;37815;52.692;6.226;2022-10-30T06:35:13;15.40;99.90
51739;DHT22;37815;52.692;6.226;2022-10-30T06:40:15;15.30;99.90
51739;DHT22;37815;52.692;6.226;2022-10-30T06:45:18;15.40;99.90
51739;DHT22;37815;52.692;6.226;2022-10-30T06:50:20;15.40;99.90
51739;DHT22;37815;52.692;6.226;2022-10-30T06:55:21;15.30;99.90
51739;DHT22;37815;52.692;6.226;2022-10-30T07:00:22;15.30;99.90
51739;DHT22;37815;52.692;6.226;2022-10-30T07:05:23;15.30;99.90
51739;DHT22;37815;52.692;6.226;2022-10-30T07:10:23;15.30;99.90
51739;DHT22;37815;52.692;6.226;2022-10-30T07:15:25;15.30;99.90
51739;DHT22;37815;52.692;6.226;2022-10-30T07:20:27;15.30;99.90
51739;DHT22;37815;52.692;6.226;2022-10-30T07:25:29;15.30;99.90
51739;DHT22;37815;52.692;6.226;2022-10-30T07:30:30;15.30;99.90
51739;DHT22;37815;52.692;6.226;2022-10-30T07:35:31;15.30;99.90
51739;DHT22;37815;52.692;6.226;2022-10-30T07:40:33;15.30;99.90
51739;DHT22;37815;52.692;6.226;2022-10-30T07:45:33;15.30;99.90
51739;DHT22;37815;52.692;6.226;2022-10-30T07:50:34;15.30;99.90
51739;DHT22;37815;52.692;6.226;2022-10-30T07:55:35;15.40;99.90
51739;DHT22;37815;52.692;6.226;2022-10-30T08:00:35;15.40;99.90
51739;DHT22;37815;52.692;6.226;2022-10-30T08:05:36;15.40;99.90
51739;DHT22;37815;52.692;6.226;2022-10-30T08:10:37;15.40;99.90
51739;DHT22;37815;52.692;6.226;2022-10-30T08:15:38;15.50;99.90
51739;DHT22;37815;52.692;6.226;2022-10-30T08:20:39;15.50;99.90
51739;DHT22;37815;52.692;6.226;2022-10-30T08:25:39;15.60;99.90
51739;DHT22;37815;52.692;6.226;2022-10-30T08:30:40;15.70;99.90
51739;DHT22;37815;52.692;6.226;2022-10-30T08:35:52;15.70;99.90
51739;DHT22;37815;52.692;6.226;2022-10-30T08:40:53;15.80;99.90
51739;DHT22;37815;52.692;6.226;2022-10-30T08:45:57;15.90;99.90
51739;DHT22;37815;52.692;6.226;2022-10-30T08:50:58;16.00;99.90
51739;DHT22;37815;52.692;6.226;2022-10-30T08:56:00;16.10;99.90
51739;DHT22;37815;52.692;6.226;2022-10-30T09:01:01;16.10;99.90
51739;DHT22;37815;52.692;6.226;2022-10-30T09:06:02;16.40;99.90
51739;DHT22;37815;52.692;6.226;2022-10-30T09:11:03;16.20;99.90
51739;DHT22;37815;52.692;6.226;2022-10-30T09:16:04;16.20;99.90
51739;DHT22;37815;52.692;6.226;2022-10-30T09:21:05;16.30;99.90
51739;DHT22;37815;52.692;6.226;2022-10-30T09:26:06;16.30;99.90
51739;DHT22;37815;52.692;6.226;2022-10-30T09:31:06;16.30;99.90
51739;DHT22;37815;52.692;6.226;2022-10-30T09:36:07;16.30;99.90
51739;DHT22;37815;52.692;6.226;2022-10-30T09:41:21;16.40;99.90
51739;DHT22;37815;52.692;6.226;2022-10-30T09:56:55;16.40;99.90
51739;DHT22;37815;52.692;6.226;2022-10-30T10:02:22;16.40;99.90
51739;DHT22;37815;52.692;6.226;2022-10-30T10:07:36;16.50;99.90
51739;DHT22;37815;52.692;6.226;2022-10-30T10:12:42;16.50;99.90
51739;DHT22;37815;52.692;6.226;2022-10-30T10:17:45;16.50;99.90
51739;DHT22;37815;52.692;6.226;2022-10-30T10:22:48;16.50;99.90
51739;DHT22;37815;52.692;6.226;2022-10-30T10:59:00;16.80;99.90
51739;DHT22;37815;52.692;6.226;2022-10-30T11:09:22;16.80;99.90
51739;DHT22;37815;52.692;6.226;2022-10-30T11:14:27;16.80;99.90
51739;DHT22;37815;52.692;6.226;2022-10-30T11:19:29;16.80;99.90
51739;DHT22;37815;52.692;6.226;2022-10-30T11:24:32;16.90;99.90
51739;DHT22;37815;52.692;6.226;2022-10-30T11:29:34;17.00;99.90
51739;DHT22;37815;52.692;6.226;2022-10-30T11:34:36;17.00;99.90
51739;DHT22;37815;52.692;6.226;2022-10-30T11:39:37;17.20;99.90
51739;DHT22;37815;52.692;6.226;2022-10-30T11:44:48;17.10;99.90
51739;DHT22;37815;52.692;6.226;2022-10-30T11:49:58;17.10;99.90
51739;DHT22;37815;52.692;6.226;2022-10-30T12:05:36;17.10;99.90
51739;DHT22;37815;52.692;6.226;2022-10-30T12:10:44;17.20;99.90
51739;DHT22;37815;52.692;6.226;2022-10-30T12:15:46;17.10;99.90
51739;DHT22;37815;52.692;6.226;2022-10-30T12:20:53;17.10;99.90
51739;DHT22;37815;52.692;6.226;2022-10-30T12:25:57;17.10;99.90
51739;DHT22;37815;52.692;6.226;2022-10-30T12:31:11;17.20;99.90
51739;DHT22;37815;52.692;6.226;2022-10-30T12:36:16;17.20;99.90
51739;DHT22;37815;52.692;6.226;2022-10-30T12:41:29;17.20;99.90
51739;DHT22;37815;52.692;6.226;2022-10-30T12:46:35;16.90;99.90
51739;DHT22;37815;52.692;6.226;2022-10-30T12:51:46;17.30;99.90
51739;DHT22;37815;52.692;6.226;2022-10-30T12:56:55;17.30;99.90
51739;DHT22;37815;52.692;6.226;2022-10-30T13:07:38;17.40;99.90
51739;DHT22;37815;52.692;6.226;2022-10-30T13:12:43;17.40;99.90
51739;DHT22;37815;52.692;6.226;2022-10-30T13:17:45;17.40;99.90
51739;DHT22;37815;52.692;6.226;2022-10-30T13:23:02;17.40;99.90
51739;DHT22;37815;52.692;6.226;2022-10-30T13:28:25;17.40;99.90
51739;DHT22;37815;52.692;6.226;2022-10-30T13:33:35;17.40;99.90
51739;DHT22;37815;52.692;6.226;2022-10-30T13:54:26;17.40;99.90
51739;DHT22;37815;52.692;6.226;2022-10-30T14:00:19;17.40;99.90
51739;DHT22;37815;52.692;6.226;2022-10-30T14:05:34;17.40;99.90
51739;DHT22;37815;52.692;6.226;2022-10-30T14:10:45;17.50;99.90
51739;DHT22;37815;52.692;6.226;2022-10-30T14:15:47;17.50;99.90
51739;DHT22;37815;52.692;6.226;2022-10-30T14:20:52;17.50;99.90
51739;DHT22;37815;52.692;6.226;2022-10-30T14:31:11;17.60;99.90
51739;DHT22;37815;52.692;6.226;2022-10-30T14:36:28;17.60;99.90
51739;DHT22;37815;52.692;6.226;2022-10-30T14:52:27;17.50;99.90
51739;DHT22;37815;52.692;6.226;2022-10-30T14:57:53;17.50;99.90
51739;DHT22;37815;52.692;6.226;2022-10-30T15:03:17;17.40;99.90
51739;DHT22;37815;52.692;6.226;2022-10-30T15:14:00;17.30;99.90
51739;DHT22;37815;52.692;6.226;2022-10-30T15:19:05;17.30;99.90
51739;DHT22;37815;52.692;6.226;2022-10-30T15:24:15;17.30;99.90
51739;DHT22;37815;52.692;6.226;2022-10-30T15:29:24;17.30;99.90
51739;DHT22;37815;52.692;6.226;2022-10-30T15:34:29;17.30;99.90
51739;DHT22;37815;52.692;6.226;2022-10-30T15:39:30;17.30;99.90
51739;DHT22;37815;52.692;6.226;2022-10-30T15:44:34;17.30;99.90
51739;DHT22;37815;52.692;6.226;2022-10-30T15:49:37;17.30;99.90
51739;DHT22;37815;52.692;6.226;2022-10-30T15:54:41;17.20;99.90
51739;DHT22;37815;52.692;6.226;2022-10-30T15:59:50;17.20;99.90
51739;DHT22;37815;52.692;6.226;2022-10-30T16:04:52;17.20;99.90
51739;DHT22;37815;52.692;6.226;2022-10-30T16:10:00;17.20;99.90
51739;DHT22;37815;52.692;6.226;2022-10-30T16:15:07;17.20;99.90
51739;DHT22;37815;52.692;6.226;2022-10-30T16:20:09;17.10;99.90
51739;DHT22;37815;52.692;6.226;2022-10-30T16:25:11;17.10;99.90
51739;DHT22;37815;52.692;6.226;2022-10-30T16:30:15;17.10;99.90
51739;DHT22;37815;52.692;6.226;2022-10-30T16:35:18;17.10;99.90
51739;DHT22;37815;52.692;6.226;2022-10-30T16:40:27;17.10;99.90
51739;DHT22;37815;52.692;6.226;2022-10-30T16:50:36;17.10;99.90
51739;DHT22;37815;52.692;6.226;2022-10-30T16:55:37;17.00;99.90
51739;DHT22;37815;52.692;6.226;2022-10-30T17:00:40;17.00;99.90
51739;DHT22;37815;52.692;6.226;2022-10-30T17:05:41;17.00;99.90
51739;DHT22;37815;52.692;6.226;2022-10-30T17:11:01;17.00;99.90
51739;DHT22;37815;52.692;6.226;2022-10-30T17:16:20;17.00;99.90
51739;DHT22;37815;52.692;6.226;2022-10-30T17:21:26;17.00;99.90
51739;DHT22;37815;52.692;6.226;2022-10-30T17:26:34;17.00;99.90
51739;DHT22;37815;52.692;6.226;2022-10-30T17:36:37;17.00;99.90
51739;DHT22;37815;52.692;6.226;2022-10-30T17:41:38;17.00;99.90
51739;DHT22;37815;52.692;6.226;2022-10-30T17:46:39;17.00;99.90
51739;DHT22;37815;52.692;6.226;2022-10-30T17:51:40;16.90;99.90
51739;DHT22;37815;52.692;6.226;2022-10-30T17:56:41;16.90;99.90
51739;DHT22;37815;52.692;6.226;2022-10-30T18:01:41;16.90;99.90
51739;DHT22;37815;52.692;6.226;2022-10-30T18:06:42;16.90;99.90
51739;DHT22;37815;52.692;6.226;2022-10-30T18:11:43;16.90;99.90
51739;DHT22;37815;52.692;6.226;2022-10-30T18:16:44;16.90;99.90
51739;DHT22;37815;52.692;6.226;2022-10-30T18:21:44;16.90;99.90
51739;DHT22;37815;52.692;6.226;2022-10-30T18:26:47;16.90;99.90
51739;DHT22;37815;52.692;6.226;2022-10-30T18:31:48;16.90;99.90
51739;DHT22;37815;52.692;6.226;2022-10-30T18:36:49;16.90;99.90
51739;DHT22;37815;52.692;6.226;2022-10-30T18:41:50;16.80;99.90
51739;DHT22;37815;52.692;6.226;2022-10-30T18:46:50;16.80;99.90
51739;DHT22;37815;52.692;6.226;2022-10-30T18:51:51;16.80;99.90
51739;DHT22;37815;52.692;6.226;2022-10-30T18:56:52;16.80;99.90
51739;DHT22;37815;52.692;6.226;2022-10-30T19:01:52;16.80;99.90
51739;DHT22;37815;52.692;6.226;2022-10-30T19:06:53;16.80;99.90
51739;DHT22;37815;52.692;6.226;2022-10-30T19:11:54;16.80;99.90
51739;DHT22;37815;52.692;6.226;2022-10-30T19:16:55;16.80;99.90
51739;DHT22;37815;52.692;6.226;2022-10-30T19:21:55;16.70;99.90
51739;DHT22;37815;52.692;6.226;2022-10-30T19:26:56;16.70;99.90
51739;DHT22;37815;52.692;6.226;2022-10-30T19:31:57;16.70;99.90
51739;DHT22;37815;52.692;6.226;2022-10-30T19:36:57;16.70;99.90
51739;DHT22;37815;52.692;6.226;2022-10-30T19:41:58;16.80;99.90
51739;DHT22;37815;52.692;6.226;2022-10-30T19:46:59;16.70;99.90
51739;DHT22;37815;52.692;6.226;2022-10-30T19:51:59;16.70;99.90
51739;DHT22;37815;52.692;6.226;2022-10-30T19:57:00;16.70;99.90
51739;DHT22;37815;52.692;6.226;2022-10-30T20:02:01;16.70;99.90
51739;DHT22;37815;52.692;6.226;2022-10-30T20:07:01;16.70;99.90
51739;DHT22;37815;52.692;6.226;2022-10-30T20:12:02;16.70;99.90
51739;DHT22;37815;52.692;6.226;2022-10-30T20:17:03;16.70;99.90
51739;DHT22;37815;52.692;6.226;2022-10-30T20:22:04;16.60;99.90
51739;DHT22;37815;52.692;6.226;2022-10-30T20:27:05;16.60;99.90
51739;DHT22;37815;52.692;6.226;2022-10-30T20:32:08;16.60;99.90
51739;DHT22;37815;52.692;6.226;2022-10-30T20:37:09;16.60;99.90
51739;DHT22;37815;52.692;6.226;2022-10-30T20:42:11;16.60;99.90
51739;DHT22;37815;52.692;6.226;2022-10-30T20:47:12;16.60;99.90
51739;DHT22;37815;52.692;6.226;2022-10-30T20:52:13;16.60;99.90
51739;DHT22;37815;52.692;6.226;2022-10-30T20:57:14;16.50;99.90
51739;DHT22;37815;52.692;6.226;2022-10-30T21:02:14;16.50;99.90
51739;DHT22;37815;52.692;6.226;2022-10-30T21:07:15;16.50;99.90
51739;DHT22;37815;52.692;6.226;2022-10-30T21:12:17;16.50;99.90
51739;DHT22;37815;52.692;6.226;2022-10-30T21:17:18;16.50;99.90
51739;DHT22;37815;52.692;6.226;2022-10-30T21:22:18;16.40;99.90
51739;DHT22;37815;52.692;6.226;2022-10-30T21:27:19;16.40;99.90
51739;DHT22;37815;52.692;6.226;2022-10-30T21:32:20;16.40;99.90
51739;DHT22;37815;52.692;6.226;2022-10-30T21:37:21;16.40;99.90
51739;DHT22;37815;52.692;6.226;2022-10-30T21:42:22;16.40;99.90
51739;DHT22;37815;52.692;6.226;2022-10-30T21:47:23;16.40;99.90
51739;DHT22;37815;52.692;6.226;2022-10-30T21:52:23;16.40;99.90
51739;DHT22;37815;52.692;6.226;2022-10-30T21:57:24;16.30;99.90
51739;DHT22;37815;52.692;6.226;2022-10-30T22:02:25;16.30;99.90
51739;DHT22;37815;52.692;6.226;2022-10-30T22:07:25;16.30;99.90
51739;DHT22;37815;52.692;6.226;2022-10-30T22:12:26;16.30;99.90
51739;DHT22;37815;52.692;6.226;2022-10-30T22:17:27;16.30;99.90
51739;DHT22;37815;52.692;6.226;2022-10-30T22:22:28;16.20;99.90
51739;DHT22;37815;52.692;6.226;2022-10-30T22:27:29;16.20;99.90
51739;DHT22;37815;52.692;6.226;2022-10-30T22:32:29;16.20;99.90
51739;DHT22;37815;52.692;6.226;2022-10-30T22:37:30;16.20;99.90
51739;DHT22;37815;52.692;6.226;2022-10-30T22:42:34;16.20;99.90
51739;DHT22;37815;52.692;6.226;2022-10-30T22:47:34;16.20;99.90
51739;DHT22;37815;52.692;6.226;2022-10-30T22:52:35;16.10;99.90
51739;DHT22;37815;52.692;6.226;2022-10-30T22:57:36;16.10;99.90
51739;DHT22;37815;52.692;6.226;2022-10-30T23:02:37;16.10;99.90
51739;DHT22;37815;52.692;6.226;2022-10-30T23:07:37;16.10;99.90
51739;DHT22;37815;52.692;6.226;2022-10-30T23:12:38;16.10;99.90
51739;DHT22;37815;52.692;6.226;2022-10-30T23:17:39;16.10;99.90
51739;DHT22;37815;52.692;6.226;2022-10-30T23:22:39;16.00;99.90
51739;DHT22;37815;52.692;6.226;2022-10-30T23:27:40;16.00;99.90
51739;DHT22;37815;52.692;6.226;2022-10-30T23:32:41;16.00;99.90
51739;DHT22;37815;52.692;6.226;2022-10-30T23:37:42;16.00;99.90
51739;DHT22;37815;52.692;6.226;2022-10-30T23:42:42;15.90;99.90
51739;DHT22;37815;52.692;6.226;2022-10-30T23:47:43;15.90;99.90
51739;DHT22;37815;52.692;6.226;2022-10-30T23:52:44;15.90;99.90
51739;DHT22;37815;52.692;6.226;2022-10-30T23:57:46;15.90;99.90
